Flight Track Log - Related Links

Times and Time Zones

All times are in EDT time to prevent confusion due to time zone crossing. See the WIG7117 flight status page for this flight to view local times or setup timezone preferences in your user account.

Time Position Orientation Groundspeed Altitude Reporting Facility
EDT Latitude Longitude Course Direction KTS MPH feet Rate Location/Type
Thu 10:18:36 PM 42.7403 -73.8111 282° West 72 83 900  Level Boston Center
Thu 10:19:43 PM 42.7481 -73.8536 284° West 124 143 2,100 1,219 Climbing Boston Center
Thu 10:20:44 PM 42.7558 -73.8992 283° West 127 146 3,500 1,339 Climbing Boston Center
Thu 10:21:44 PM 42.7614 -73.9417 280° West 120 138 4,800 1,228 Climbing Boston Center
Thu 10:22:51 PM 42.7711 -73.9900 285° West 114 131 6,100 1,172 Climbing Boston Center
Thu 10:23:52 PM 42.7811 -74.0356 287° West 118 136 7,300 942 Climbing Boston Center
Thu 10:24:00 PM 42.7831 -74.0152 282° West  Level FlightAware Approximate
Thu 10:24:52 PM 42.7867 -74.0753 281° West 116 133 8,000  Level Boston Center
Thu 10:26:05 PM 42.7964 -74.1350 283° West 136 157 8,000  Level Boston Center
Thu 10:27:06 PM 42.8058 -74.1889 283° West 139 160 8,000  Level Boston Center
Thu 10:28:06 PM 42.8133 -74.2375 282° West 130 150 8,000  Level Boston Center
Thu 10:29:01 PM 42.8189 -74.2800 280° West 131 151 8,000  Level Boston Center
Thu 10:30:01 PM 42.8286 -74.3314 284° West 133 153 8,000 -50 Level Boston Center
Thu 10:31:01 PM 42.8383 -74.3797 285° West 130 150 7,900 -58 Descending Boston Center
Thu 10:31:44 PM 42.8419 -74.4108 279° West 128 147 7,900  Level Boston Center
Thu 10:32:44 PM 42.8492 -74.4622 281° West 133 153 7,900  Level Boston Center
Thu 10:33:45 PM 42.8589 -74.5106 285° West 132 152 7,900  Level Boston Center
Thu 10:34:46 PM 42.8683 -74.5592 285° West 131 151 7,900  Level Boston Center
Thu 10:35:46 PM 42.8758 -74.6103 281° West 131 151 7,900  Level Boston Center
Thu 10:36:47 PM 42.8831 -74.6589 281° West 133 153 7,900  Level Boston Center
Thu 10:37:47 PM 42.8925 -74.7072 285° West 133 153 7,900  Level Boston Center
Thu 10:38:48 PM 42.9000 -74.7558 282° West 132 152 7,900  Level Boston Center
Thu 10:39:49 PM 42.9092 -74.8100 283° West 135 155 7,900  Level Boston Center
Thu 10:40:49 PM 42.9167 -74.8556 283° West 129 148 7,900  Level Boston Center
Thu 10:41:50 PM 42.9239 -74.9014 282° West 125 144 7,900  Level Boston Center
Thu 10:42:51 PM 42.9314 -74.9469 283° West 125 144 7,900  Level Boston Center
Thu 10:43:51 PM 42.9386 -74.9897 283° West 120 138 7,900  Level Boston Center
Thu 10:44:52 PM 42.9461 -75.0356 283° West 121 139 7,900  Level Boston Center
Thu 10:45:52 PM 42.9533 -75.0811 282° West 121 139 7,900  Level Boston Center
Thu 10:46:53 PM 42.9586 -75.1242 280° West 119 137 7,900  Level Boston Center
Thu 10:47:54 PM 42.9656 -75.1783 280° West 126 145 7,900  Level Boston Center
Thu 10:48:54 PM 42.9728 -75.2239 282° West 129 148 7,900  Level Boston Center
Thu 10:49:55 PM 42.9822 -75.2697 286° West 127 146 7,900 99 Level Boston Center
Thu 10:50:55 PM 42.9872 -75.3156 278° West 126 145 8,100 -198 Climbing Boston Center
Thu 10:51:56 PM 42.9922 -75.3639 278° West 130 150 7,500 -590 Descending Boston Center
Thu 10:52:57 PM 42.9931 -75.4181 271° West 141 162 6,900 -614 Descending Boston Center
Thu 10:54:03 PM 42.9956 -75.4778 273° West 141 162 6,200 -645 Descending Boston Center
Thu 10:54:58 PM 42.9983 -75.5261 275° West 144 166 5,600 -595 Descending Boston Center
Thu 10:56:04 PM 43.0031 -75.5889 276° West 149 171 5,000 -283 Descending Boston Center
Thu 10:57:05 PM 43.0078 -75.6431 277° West 146 168 5,000  Level Boston Center
Thu 10:58:06 PM 43.0144 -75.6972 280° West 142 163 5,000  Level Boston Center
Thu 10:59:06 PM 43.0214 -75.7461 281° West 140 161 5,000  Level Boston Center
Thu 11:00:07 PM 43.0283 -75.8003 280° West 138 159 5,000  Level Boston Center
Thu 11:01:08 PM 43.0369 -75.8547 282° West 143 165 5,000  Level Boston Center
Thu 11:02:08 PM 43.0478 -75.9153 284° West 152 175 5,000 50 Level Boston Center
Thu 11:03:09 PM 43.0503 -75.9664 274° West 138 159 5,100 50 Climbing Boston Center
Thu 11:04:09 PM 43.0486 -76.0175 267° West 131 151 5,100 -52 Level Boston Center
Thu 11:05:04 PM 43.0475 -76.0572 268° West 131 151 5,000 -103 Descending Boston Center
Thu 11:06:05 PM 43.0436 -76.1081 264° West 133 153 4,900 -545 Descending Boston Center
Thu 11:07:05 PM 43.0375 -76.1675 262° West 146 168 3,900 -1,091 Descending Boston Center
Thu 11:08:06 PM 43.0381 -76.2214 271° West 145 167 2,700 -783 Descending Boston Center
Thu 11:09:00 PM 43.0322 -76.2667 260° West 142 163 2,400 -157 Descending Boston Center
Thu 11:10:01 PM 43.0431 -76.3156 287° West 157 181 2,400  Level Boston Center
Thu 11:11:01 PM 43.0892 -76.3072 North 158 182 2,400 50 Level Boston Center
Thu 11:12:02 PM 43.1033 -76.2625 67° East 123 142 2,500 -295 Climbing Boston Center
Thu 11:13:03 PM 43.1047 -76.2228 87° East 101 116 1,800 -595 Descending Boston Center
Thu 11:14:03 PM 43.1078 -76.1858 84° East 99 114 1,300 -500 Descending Boston Center

Login

Don't have an account? Register now (free) for customized features, flight alerts, and more!